sensor_id;sensor_type;location;lat;lon;timestamp;pressure;altitude;pressure_sealevel;temperature;humidity
68075;BME280;54864;52.002;5.468;2023-05-20T00:00:44;102341.72;;;13.76;60.44
68075;BME280;54864;52.002;5.468;2023-05-20T00:01:48;102343.72;;;13.69;60.75
68075;BME280;54864;52.002;5.468;2023-05-20T00:02:49;102337.44;;;13.72;60.63
68075;BME280;54864;52.002;5.468;2023-05-20T00:03:53;102342.38;;;13.82;60.86
68075;BME280;54864;52.002;5.468;2023-05-20T00:04:55;102339.00;;;13.77;60.23
68075;BME280;54864;52.002;5.468;2023-05-20T00:05:57;102342.59;;;13.76;60.40
68075;BME280;54864;52.002;5.468;2023-05-20T00:06:57;102342.53;;;13.78;60.28
68075;BME280;54864;52.002;5.468;2023-05-20T00:07:59;102341.72;;;13.76;60.25
68075;BME280;54864;52.002;5.468;2023-05-20T00:09:00;102342.53;;;13.78;60.35
68075;BME280;54864;52.002;5.468;2023-05-20T00:10:02;102346.91;;;13.79;60.34
68075;BME280;54864;52.002;5.468;2023-05-20T00:11:03;102337.28;;;13.76;60.76
68075;BME280;54864;52.002;5.468;2023-05-20T00:12:05;102346.00;;;13.80;60.99
68075;BME280;54864;52.002;5.468;2023-05-20T00:13:06;102340.69;;;13.80;60.84
68075;BME280;54864;52.002;5.468;2023-05-20T00:14:08;102340.75;;;13.78;60.98
68075;BME280;54864;52.002;5.468;2023-05-20T00:15:09;102342.69;;;13.73;60.29
68075;BME280;54864;52.002;5.468;2023-05-20T00:16:11;102343.81;;;13.66;60.63
68075;BME280;54864;52.002;5.468;2023-05-20T00:17:12;102348.09;;;13.70;60.88
68075;BME280;54864;52.002;5.468;2023-05-20T00:18:13;102346.19;;;13.74;60.66
68075;BME280;54864;52.002;5.468;2023-05-20T00:19:14;102351.78;;;13.66;61.08
68075;BME280;54864;52.002;5.468;2023-05-20T00:20:17;102344.63;;;13.68;60.79
68075;BME280;54864;52.002;5.468;2023-05-20T00:21:18;102340.09;;;13.72;60.76
68075;BME280;54864;52.002;5.468;2023-05-20T00:22:20;102349.94;;;13.68;60.50
68075;BME280;54864;52.002;5.468;2023-05-20T00:23:21;102344.63;;;13.68;60.24
68075;BME280;54864;52.002;5.468;2023-05-20T00:24:23;102344.41;;;13.48;60.13
68075;BME280;54864;52.002;5.468;2023-05-20T00:25:24;102351.97;;;13.32;60.66
68075;BME280;54864;52.002;5.468;2023-05-20T00:26:27;102348.78;;;13.49;61.25
68075;BME280;54864;52.002;5.468;2023-05-20T00:27:28;102347.00;;;13.49;60.48
68075;BME280;54864;52.002;5.468;2023-05-20T00:28:30;102347.88;;;13.50;61.41
68075;BME280;54864;52.002;5.468;2023-05-20T00:29:30;102360.81;;;13.59;60.85
68075;BME280;54864;52.002;5.468;2023-05-20T00:30:34;102351.28;;;13.53;61.31
68075;BME280;54864;52.002;5.468;2023-05-20T00:31:35;102346.78;;;13.55;61.82
68075;BME280;54864;52.002;5.468;2023-05-20T00:32:37;102350.25;;;13.57;61.23
68075;BME280;54864;52.002;5.468;2023-05-20T00:33:37;102348.44;;;13.59;61.35
68075;BME280;54864;52.002;5.468;2023-05-20T00:34:39;102344.97;;;13.57;61.09
68075;BME280;54864;52.002;5.468;2023-05-20T00:35:41;102347.97;;;13.47;61.07
68075;BME280;54864;52.002;5.468;2023-05-20T00:36:43;102349.84;;;13.43;61.72
68075;BME280;54864;52.002;5.468;2023-05-20T00:37:44;102341.75;;;13.48;61.59
68075;BME280;54864;52.002;5.468;2023-05-20T00:38:45;102340.78;;;13.50;61.67
68075;BME280;54864;52.002;5.468;2023-05-20T00:39:46;102347.00;;;13.49;61.25
68075;BME280;54864;52.002;5.468;2023-05-20T00:40:48;102348.88;;;13.46;61.47
68075;BME280;54864;52.002;5.468;2023-05-20T00:41:51;102345.31;;;13.47;61.10
68075;BME280;54864;52.002;5.468;2023-05-20T00:42:53;102346.38;;;13.41;61.63
68075;BME280;54864;52.002;5.468;2023-05-20T00:43:54;102343.78;;;13.40;61.47
68075;BME280;54864;52.002;5.468;2023-05-20T00:44:56;102342.00;;;13.40;62.43
68075;BME280;54864;52.002;5.468;2023-05-20T00:45:57;102343.03;;;13.36;61.76
68075;BME280;54864;52.002;5.468;2023-05-20T00:46:58;102337.81;;;13.33;62.17
68075;BME280;54864;52.002;5.468;2023-05-20T00:47:59;102336.53;;;13.18;62.54
68075;BME280;54864;52.002;5.468;2023-05-20T00:49:03;102336.50;;;13.20;62.42
68075;BME280;54864;52.002;5.468;2023-05-20T00:50:05;102333.78;;;13.21;62.09
68075;BME280;54864;52.002;5.468;2023-05-20T00:51:09;102333.69;;;13.24;62.42
68075;BME280;54864;52.002;5.468;2023-05-20T00:52:10;102330.06;;;13.27;62.57
68075;BME280;54864;52.002;5.468;2023-05-20T00:53:13;102334.56;;;13.25;62.96
68075;BME280;54864;52.002;5.468;2023-05-20T00:54:16;102332.56;;;13.31;62.55
68075;BME280;54864;52.002;5.468;2023-05-20T00:55:18;102328.25;;;13.29;62.38
68075;BME280;54864;52.002;5.468;2023-05-20T00:56:19;102329.22;;;13.26;62.85
68075;BME280;54864;52.002;5.468;2023-05-20T00:57:22;102333.59;;;13.27;63.00
68075;BME280;54864;52.002;5.468;2023-05-20T00:58:22;102320.34;;;13.27;62.75
68075;BME280;54864;52.002;5.468;2023-05-20T00:59:24;102321.50;;;13.19;63.31
68075;BME280;54864;52.002;5.468;2023-05-20T01:00:25;102321.81;;;13.08;62.61
68075;BME280;54864;52.002;5.468;2023-05-20T01:01:27;102319.19;;;13.08;63.17
68075;BME280;54864;52.002;5.468;2023-05-20T01:02:28;102324.47;;;13.08;63.31
68075;BME280;54864;52.002;5.468;2023-05-20T01:03:31;102321.69;;;13.13;63.11
68075;BME280;54864;52.002;5.468;2023-05-20T01:04:32;102322.53;;;13.13;63.29
68075;BME280;54864;52.002;5.468;2023-05-20T01:05:33;102321.81;;;13.08;63.43
68075;BME280;54864;52.002;5.468;2023-05-20T01:06:35;102318.34;;;13.06;63.37
68075;BME280;54864;52.002;5.468;2023-05-20T01:07:38;102323.50;;;13.11;63.10
68075;BME280;54864;52.002;5.468;2023-05-20T01:08:39;102318.31;;;13.08;63.73
68075;BME280;54864;52.002;5.468;2023-05-20T01:09:41;102319.31;;;13.04;63.13
68075;BME280;54864;52.002;5.468;2023-05-20T01:10:45;102320.41;;;12.96;63.49
68075;BME280;54864;52.002;5.468;2023-05-20T01:11:51;102316.72;;;13.02;63.76
68075;BME280;54864;52.002;5.468;2023-05-20T01:13:00;102314.84;;;13.06;63.98
68075;BME280;54864;52.002;5.468;2023-05-20T01:14:07;102320.03;;;13.09;64.03
68075;BME280;54864;52.002;5.468;2023-05-20T01:15:10;102317.44;;;13.07;63.99
68075;BME280;54864;52.002;5.468;2023-05-20T01:16:13;102314.75;;;13.09;63.70
68075;BME280;54864;52.002;5.468;2023-05-20T01:17:19;102310.38;;;13.08;63.88
68075;BME280;54864;52.002;5.468;2023-05-20T01:18:25;102319.03;;;13.13;63.29
68075;BME280;54864;52.002;5.468;2023-05-20T01:19:34;102319.28;;;13.05;63.58
68075;BME280;54864;52.002;5.468;2023-05-20T01:20:36;102322.03;;;13.02;63.41
68075;BME280;54864;52.002;5.468;2023-05-20T01:21:40;102306.19;;;12.99;63.59
68075;BME280;54864;52.002;5.468;2023-05-20T01:22:48;102318.47;;;13.03;63.68
68075;BME280;54864;52.002;5.468;2023-05-20T01:23:49;102315.00;;;13.01;63.73
68075;BME280;54864;52.002;5.468;2023-05-20T01:24:51;102311.72;;;12.91;63.85
68075;BME280;54864;52.002;5.468;2023-05-20T01:25:52;102315.19;;;12.93;64.00
68075;BME280;54864;52.002;5.468;2023-05-20T01:26:54;102308.94;;;12.96;64.80
68075;BME280;54864;52.002;5.468;2023-05-20T01:27:57;102313.31;;;12.97;64.02
68075;BME280;54864;52.002;5.468;2023-05-20T01:28:59;102317.94;;;12.90;63.88
68075;BME280;54864;52.002;5.468;2023-05-20T01:30:04;102308.38;;;12.86;63.86
68075;BME280;54864;52.002;5.468;2023-05-20T01:31:13;102307.50;;;12.86;64.29
68075;BME280;54864;52.002;5.468;2023-05-20T01:32:19;102310.88;;;12.91;64.05
68075;BME280;54864;52.002;5.468;2023-05-20T01:33:23;102306.28;;;12.96;64.72
68075;BME280;54864;52.002;5.468;2023-05-20T01:34:26;102306.09;;;13.04;65.02
68075;BME280;54864;52.002;5.468;2023-05-20T01:35:27;102303.53;;;13.00;64.49
68075;BME280;54864;52.002;5.468;2023-05-20T01:36:31;102300.13;;;12.95;64.87
68075;BME280;54864;52.002;5.468;2023-05-20T01:37:34;102304.41;;;12.99;64.61
68075;BME280;54864;52.002;5.468;2023-05-20T01:38:38;102303.75;;;12.93;64.26
68075;BME280;54864;52.002;5.468;2023-05-20T01:39:43;102304.00;;;12.85;64.41
68075;BME280;54864;52.002;5.468;2023-05-20T01:40:46;102301.47;;;12.81;64.83
68075;BME280;54864;52.002;5.468;2023-05-20T01:41:48;102298.84;;;12.81;65.53
68075;BME280;54864;52.002;5.468;2023-05-20T01:42:50;102300.53;;;12.83;65.61
68075;BME280;54864;52.002;5.468;2023-05-20T01:43:56;102297.00;;;12.83;64.94
68075;BME280;54864;52.002;5.468;2023-05-20T01:44:59;102300.53;;;12.83;64.92
68075;BME280;54864;52.002;5.468;2023-05-20T01:45:59;102301.44;;;12.82;64.90
68075;BME280;54864;52.002;5.468;2023-05-20T01:47:02;102301.53;;;12.79;64.69
68075;BME280;54864;52.002;5.468;2023-05-20T01:48:04;102300.53;;;12.83;65.19
68075;BME280;54864;52.002;5.468;2023-05-20T01:49:05;102296.13;;;12.82;65.09
68075;BME280;54864;52.002;5.468;2023-05-20T01:50:07;102296.13;;;12.82;64.76
68075;BME280;54864;52.002;5.468;2023-05-20T01:51:09;102288.41;;;12.76;65.34
68075;BME280;54864;52.002;5.468;2023-05-20T01:52:09;102293.81;;;12.72;64.89
68075;BME280;54864;52.002;5.468;2023-05-20T01:53:11;102293.88;;;12.70;65.27
68075;BME280;54864;52.002;5.468;2023-05-20T01:54:13;102285.34;;;12.60;65.30
68075;BME280;54864;52.002;5.468;2023-05-20T01:55:15;102293.25;;;12.62;65.55
68075;BME280;54864;52.002;5.468;2023-05-20T01:56:19;102290.81;;;12.54;65.57
68075;BME280;54864;52.002;5.468;2023-05-20T01:57:22;102290.78;;;12.56;65.48
68075;BME280;54864;52.002;5.468;2023-05-20T01:58:23;102287.13;;;12.60;65.46
68075;BME280;54864;52.002;5.468;2023-05-20T01:59:24;102284.44;;;12.61;66.06
68075;BME280;54864;52.002;5.468;2023-05-20T02:00:25;102286.13;;;12.64;66.04
68075;BME280;54864;52.002;5.468;2023-05-20T02:01:27;102285.34;;;12.60;66.28
68075;BME280;54864;52.002;5.468;2023-05-20T02:02:27;102282.69;;;12.60;66.26
68075;BME280;54864;52.002;5.468;2023-05-20T02:03:29;102292.22;;;12.66;65.87
68075;BME280;54864;52.002;5.468;2023-05-20T02:04:30;102291.38;;;12.65;65.84
68075;BME280;54864;52.002;5.468;2023-05-20T02:05:32;102291.22;;;12.70;65.94
68075;BME280;54864;52.002;5.468;2023-05-20T02:06:32;102284.19;;;12.69;65.72
68075;BME280;54864;52.002;5.468;2023-05-20T02:07:34;102284.28;;;12.66;65.43
68075;BME280;54864;52.002;5.468;2023-05-20T02:08:35;102283.38;;;12.67;66.03
68075;BME280;54864;52.002;5.468;2023-05-20T02:09:38;102281.56;;;12.69;66.13
68075;BME280;54864;52.002;5.468;2023-05-20T02:10:39;102283.56;;;12.61;66.20
68075;BME280;54864;52.002;5.468;2023-05-20T02:11:41;102285.34;;;12.60;66.18
68075;BME280;54864;52.002;5.468;2023-05-20T02:12:41;102294.16;;;12.61;66.33
68075;BME280;54864;52.002;5.468;2023-05-20T02:13:43;102283.56;;;12.61;66.38
68075;BME280;54864;52.002;5.468;2023-05-20T02:14:45;102281.03;;;12.58;66.03
68075;BME280;54864;52.002;5.468;2023-05-20T02:15:50;102289.63;;;12.64;66.44
68075;BME280;54864;52.002;5.468;2023-05-20T02:16:53;102280.16;;;12.57;66.47
68075;BME280;54864;52.002;5.468;2023-05-20T02:17:55;102281.78;;;12.61;66.41
68075;BME280;54864;52.002;5.468;2023-05-20T02:19:00;102282.53;;;12.66;66.62
68075;BME280;54864;52.002;5.468;2023-05-20T02:20:01;102291.31;;;12.67;66.52
68075;BME280;54864;52.002;5.468;2023-05-20T02:21:05;102286.16;;;12.62;66.33
68075;BME280;54864;52.002;5.468;2023-05-20T02:22:07;102285.31;;;12.62;66.56
68075;BME280;54864;52.002;5.468;2023-05-20T02:23:08;102286.16;;;12.62;66.09
68075;BME280;54864;52.002;5.468;2023-05-20T02:24:12;102291.47;;;12.62;66.25
68075;BME280;54864;52.002;5.468;2023-05-20T02:25:15;102292.50;;;12.57;66.98
68075;BME280;54864;52.002;5.468;2023-05-20T02:26:16;102290.78;;;12.56;66.37
68075;BME280;54864;52.002;5.468;2023-05-20T02:27:17;102295.34;;;12.51;66.92
68075;BME280;54864;52.002;5.468;2023-05-20T02:28:19;102291.06;;;12.47;66.58
68075;BME280;54864;52.002;5.468;2023-05-20T02:29:19;102290.56;;;12.32;66.80
68075;BME280;54864;52.002;5.468;2023-05-20T02:30:21;102292.06;;;12.43;67.57
68075;BME280;54864;52.002;5.468;2023-05-20T02:31:22;102289.28;;;12.47;66.83
68075;BME280;54864;52.002;5.468;2023-05-20T02:32:24;102282.97;;;12.51;67.18
68075;BME280;54864;52.002;5.468;2023-05-20T02:33:27;102278.00;;;12.41;67.84
68075;BME280;54864;52.002;5.468;2023-05-20T02:34:29;102282.25;;;12.46;67.74
68075;BME280;54864;52.002;5.468;2023-05-20T02:35:30;102286.63;;;12.47;67.29
68075;BME280;54864;52.002;5.468;2023-05-20T02:36:35;102276.00;;;12.49;67.12
68075;BME280;54864;52.002;5.468;2023-05-20T02:37:36;102276.16;;;12.44;67.02
68075;BME280;54864;52.002;5.468;2023-05-20T02:38:38;102272.81;;;12.37;67.60
68075;BME280;54864;52.002;5.468;2023-05-20T02:39:44;102278.09;;;12.37;67.34
68075;BME280;54864;52.002;5.468;2023-05-20T02:40:47;102275.53;;;12.34;67.60
68075;BME280;54864;52.002;5.468;2023-05-20T02:41:47;102278.94;;;12.40;68.05
68075;BME280;54864;52.002;5.468;2023-05-20T02:42:49;102276.19;;;12.43;67.45
68075;BME280;54864;52.002;5.468;2023-05-20T02:43:50;102277.28;;;12.34;68.11
68075;BME280;54864;52.002;5.468;2023-05-20T02:44:51;102269.44;;;12.31;68.20
68075;BME280;54864;52.002;5.468;2023-05-20T02:45:55;102279.03;;;12.36;68.00
68075;BME280;54864;52.002;5.468;2023-05-20T02:46:57;102279.03;;;12.35;68.24
68075;BME280;54864;52.002;5.468;2023-05-20T02:47:58;102274.56;;;12.38;68.02
68075;BME280;54864;52.002;5.468;2023-05-20T02:49:02;102276.31;;;12.38;68.27
68075;BME280;54864;52.002;5.468;2023-05-20T02:50:04;102271.94;;;12.37;67.51
68075;BME280;54864;52.002;5.468;2023-05-20T02:51:06;102271.00;;;12.40;68.32
68075;BME280;54864;52.002;5.468;2023-05-20T02:52:07;102271.84;;;12.40;67.79
68075;BME280;54864;52.002;5.468;2023-05-20T02:53:08;102269.31;;;12.37;67.75
68075;BME280;54864;52.002;5.468;2023-05-20T02:54:09;102264.25;;;12.28;67.66
68075;BME280;54864;52.002;5.468;2023-05-20T02:55:11;102269.41;;;12.32;68.02
68075;BME280;54864;52.002;5.468;2023-05-20T02:56:13;102266.66;;;12.37;68.21
68075;BME280;54864;52.002;5.468;2023-05-20T02:57:15;102263.97;;;12.38;68.09
68075;BME280;54864;52.002;5.468;2023-05-20T02:58:16;102270.09;;;12.41;68.02
68075;BME280;54864;52.002;5.468;2023-05-20T02:59:18;102276.16;;;12.44;68.07
68075;BME280;54864;52.002;5.468;2023-05-20T03:00:18;102268.44;;;12.35;68.05
68075;BME280;54864;52.002;5.468;2023-05-20T03:01:21;102267.34;;;12.44;68.09
68075;BME280;54864;52.002;5.468;2023-05-20T03:02:22;102263.16;;;12.35;68.25
68075;BME280;54864;52.002;5.468;2023-05-20T03:03:25;102266.66;;;12.37;68.30
68075;BME280;54864;52.002;5.468;2023-05-20T03:04:27;102257.72;;;12.41;68.33
68075;BME280;54864;52.002;5.468;2023-05-20T03:05:30;102271.72;;;12.45;68.22
68075;BME280;54864;52.002;5.468;2023-05-20T03:06:34;102264.66;;;12.45;68.30
68075;BME280;54864;52.002;5.468;2023-05-20T03:07:37;102261.97;;;12.47;68.20
68075;BME280;54864;52.002;5.468;2023-05-20T03:08:38;102262.72;;;12.50;68.44
68075;BME280;54864;52.002;5.468;2023-05-20T03:09:42;102259.94;;;12.55;68.26
68075;BME280;54864;52.002;5.468;2023-05-20T03:10:42;102265.06;;;12.61;68.15
68075;BME280;54864;52.002;5.468;2023-05-20T03:11:48;102259.72;;;12.62;67.78
68075;BME280;54864;52.002;5.468;2023-05-20T03:12:49;102262.31;;;12.64;67.80
68075;BME280;54864;52.002;5.468;2023-05-20T03:13:51;102260.47;;;12.66;67.59
68075;BME280;54864;52.002;5.468;2023-05-20T03:14:51;102265.69;;;12.69;67.92
68075;BME280;54864;52.002;5.468;2023-05-20T03:15:54;102257.88;;;12.64;67.89
68075;BME280;54864;52.002;5.468;2023-05-20T03:16:55;102270.09;;;12.68;67.66
68075;BME280;54864;52.002;5.468;2023-05-20T03:17:57;102269.38;;;12.63;68.14
68075;BME280;54864;52.002;5.468;2023-05-20T03:18:57;102274.97;;;12.54;68.28
68075;BME280;54864;52.002;5.468;2023-05-20T03:20:00;102273.91;;;12.60;68.21
68075;BME280;54864;52.002;5.468;2023-05-20T03:21:01;102277.38;;;12.62;68.23
68075;BME280;54864;52.002;5.468;2023-05-20T03:22:03;102272.03;;;12.63;67.82
68075;BME280;54864;52.002;5.468;2023-05-20T03:23:04;102276.53;;;12.60;68.02
68075;BME280;54864;52.002;5.468;2023-05-20T03:24:09;102272.81;;;12.67;67.80
68075;BME280;54864;52.002;5.468;2023-05-20T03:25:10;102278.88;;;12.70;67.58
68075;BME280;54864;52.002;5.468;2023-05-20T03:26:12;102272.66;;;12.72;67.82
68075;BME280;54864;52.002;5.468;2023-05-20T03:27:14;102270.00;;;12.72;67.44
68075;BME280;54864;52.002;5.468;2023-05-20T03:28:19;102272.59;;;12.73;67.63
68075;BME280;54864;52.002;5.468;2023-05-20T03:29:22;102277.91;;;12.73;67.78
68075;BME280;54864;52.002;5.468;2023-05-20T03:30:24;102272.81;;;12.67;67.48
68075;BME280;54864;52.002;5.468;2023-05-20T03:31:25;102271.06;;;12.66;67.56
68075;BME280;54864;52.002;5.468;2023-05-20T03:32:26;102270.06;;;12.70;67.98
68075;BME280;54864;52.002;5.468;2023-05-20T03:33:28;102270.16;;;12.67;68.15
68075;BME280;54864;52.002;5.468;2023-05-20T03:34:30;102279.72;;;12.71;67.79
68075;BME280;54864;52.002;5.468;2023-05-20T03:35:31;102277.09;;;12.71;67.47
68075;BME280;54864;52.002;5.468;2023-05-20T03:36:33;102273.63;;;12.69;67.60
68075;BME280;54864;52.002;5.468;2023-05-20T03:37:34;102272.81;;;12.67;67.66
68075;BME280;54864;52.002;5.468;2023-05-20T03:38:35;102281.50;;;12.70;67.44
68075;BME280;54864;52.002;5.468;2023-05-20T03:39:37;102273.75;;;12.64;68.01
68075;BME280;54864;52.002;5.468;2023-05-20T03:40:37;102274.47;;;12.69;68.11
68075;BME280;54864;52.002;5.468;2023-05-20T03:41:39;102271.78;;;12.71;68.15
68075;BME280;54864;52.002;5.468;2023-05-20T03:42:41;102271.66;;;12.76;68.18
68075;BME280;54864;52.002;5.468;2023-05-20T03:43:43;102273.38;;;12.77;68.03
68075;BME280;54864;52.002;5.468;2023-05-20T03:44:44;102271.50;;;12.52;67.99
68075;BME280;54864;52.002;5.468;2023-05-20T03:45:47;102268.66;;;12.58;68.36
68075;BME280;54864;52.002;5.468;2023-05-20T03:46:54;102265.88;;;12.63;68.08
68075;BME280;54864;52.002;5.468;2023-05-20T03:47:56;102269.28;;;12.66;68.42
68075;BME280;54864;52.002;5.468;2023-05-20T03:49:17;102270.25;;;12.64;67.90
68075;BME280;54864;52.002;5.468;2023-05-20T03:50:18;102271.94;;;12.66;67.92
68075;BME280;54864;52.002;5.468;2023-05-20T03:51:19;102274.38;;;12.73;67.66
68075;BME280;54864;52.002;5.468;2023-05-20T03:52:21;102267.38;;;12.72;67.29
68075;BME280;54864;52.002;5.468;2023-05-20T03:53:21;102272.75;;;12.68;67.93
68075;BME280;54864;52.002;5.468;2023-05-20T03:54:23;102273.66;;;12.67;67.79
68075;BME280;54864;52.002;5.468;2023-05-20T03:55:24;102273.53;;;12.72;68.22
68075;BME280;54864;52.002;5.468;2023-05-20T03:56:27;102269.16;;;12.71;67.62
68075;BME280;54864;52.002;5.468;2023-05-20T03:57:27;102265.06;;;12.61;67.83
68075;BME280;54864;52.002;5.468;2023-05-20T03:58:32;102264.88;;;12.67;67.95
68075;BME280;54864;52.002;5.468;2023-05-20T03:59:40;102265.34;;;12.52;68.12
68075;BME280;54864;52.002;5.468;2023-05-20T04:00:42;102265.16;;;12.58;68.44
68075;BME280;54864;52.002;5.468;2023-05-20T04:01:43;102266.72;;;12.63;68.34
68075;BME280;54864;52.002;5.468;2023-05-20T04:02:46;102269.56;;;12.57;68.61
68075;BME280;54864;52.002;5.468;2023-05-20T04:03:47;102266.19;;;12.52;68.79
68075;BME280;54864;52.002;5.468;2023-05-20T04:04:49;102270.56;;;12.53;68.86
68075;BME280;54864;52.002;5.468;2023-05-20T04:05:52;102275.09;;;12.50;68.70
68075;BME280;54864;52.002;5.468;2023-05-20T04:06:53;102270.44;;;12.58;69.26
68075;BME280;54864;52.002;5.468;2023-05-20T04:07:55;102275.06;;;12.51;68.69
68075;BME280;54864;52.002;5.468;2023-05-20T04:08:57;102266.97;;;12.56;68.75
68075;BME280;54864;52.002;5.468;2023-05-20T04:09:58;102265.88;;;12.63;68.42
68075;BME280;54864;52.002;5.468;2023-05-20T04:11:00;102271.97;;;12.65;68.54
68075;BME280;54864;52.002;5.468;2023-05-20T04:12:00;102274.44;;;12.71;68.75
68075;BME280;54864;52.002;5.468;2023-05-20T04:13:02;102269.06;;;12.74;68.59
68075;BME280;54864;52.002;5.468;2023-05-20T04:14:04;102275.16;;;12.76;68.50
68075;BME280;54864;52.002;5.468;2023-05-20T04:15:07;102270.63;;;12.80;68.62
68075;BME280;54864;52.002;5.468;2023-05-20T04:16:08;102268.31;;;12.69;68.28
68075;BME280;54864;52.002;5.468;2023-05-20T04:17:09;102271.75;;;12.73;68.34
68075;BME280;54864;52.002;5.468;2023-05-20T04:18:10;102268.13;;;12.75;68.41
68075;BME280;54864;52.002;5.468;2023-05-20T04:19:13;102269.91;;;12.75;68.09
68075;BME280;54864;52.002;5.468;2023-05-20T04:20:15;102274.38;;;12.73;68.29
68075;BME280;54864;52.002;5.468;2023-05-20T04:21:17;102274.19;;;12.79;67.71
68075;BME280;54864;52.002;5.468;2023-05-20T04:22:18;102275.22;;;12.75;67.94
68075;BME280;54864;52.002;5.468;2023-05-20T04:23:20;102267.06;;;12.81;68.02
68075;BME280;54864;52.002;5.468;2023-05-20T04:24:20;102270.63;;;12.80;67.60
68075;BME280;54864;52.002;5.468;2023-05-20T04:25:24;102273.53;;;12.72;67.81
68075;BME280;54864;52.002;5.468;2023-05-20T04:26:25;102266.44;;;12.73;67.88
68075;BME280;54864;52.002;5.468;2023-05-20T04:27:26;102274.19;;;12.79;68.16
68075;BME280;54864;52.002;5.468;2023-05-20T04:28:28;102270.59;;;12.81;67.99
68075;BME280;54864;52.002;5.468;2023-05-20T04:29:32;102269.81;;;12.78;68.10
68075;BME280;54864;52.002;5.468;2023-05-20T04:30:33;102275.22;;;12.75;67.98
68075;BME280;54864;52.002;5.468;2023-05-20T04:31:35;102270.81;;;12.74;68.30
68075;BME280;54864;52.002;5.468;2023-05-20T04:32:35;102267.22;;;12.76;68.33
68075;BME280;54864;52.002;5.468;2023-05-20T04:33:39;102274.09;;;12.82;68.63
68075;BME280;54864;52.002;5.468;2023-05-20T04:34:40;102275.34;;;12.70;68.40
68075;BME280;54864;52.002;5.468;2023-05-20T04:35:44;102277.72;;;12.79;68.60
68075;BME280;54864;52.002;5.468;2023-05-20T04:36:47;102282.00;;;12.83;68.82
68075;BME280;54864;52.002;5.468;2023-05-20T04:37:52;102287.34;;;12.82;68.05
68075;BME280;54864;52.002;5.468;2023-05-20T04:38:54;102282.13;;;12.79;68.33
68075;BME280;54864;52.002;5.468;2023-05-20T04:39:59;102280.22;;;12.84;68.18
68075;BME280;54864;52.002;5.468;2023-05-20T04:41:04;102290.91;;;12.81;67.99
68075;BME280;54864;52.002;5.468;2023-05-20T04:42:06;102282.09;;;12.80;68.09
68075;BME280;54864;52.002;5.468;2023-05-20T04:43:06;102284.69;;;12.82;68.31
68075;BME280;54864;52.002;5.468;2023-05-20T04:44:08;102284.63;;;12.83;68.42
68075;BME280;54864;52.002;5.468;2023-05-20T04:45:11;102280.50;;;12.75;68.60
68075;BME280;54864;52.002;5.468;2023-05-20T04:46:13;102283.78;;;12.83;68.83
68075;BME280;54864;52.002;5.468;2023-05-20T04:47:14;102288.25;;;12.81;68.41
68075;BME280;54864;52.002;5.468;2023-05-20T04:48:15;102276.50;;;12.61;68.94
68075;BME280;54864;52.002;5.468;2023-05-20T04:49:16;102285.97;;;12.68;68.74
68075;BME280;54864;52.002;5.468;2023-05-20T04:50:18;102280.50;;;12.75;68.92
68075;BME280;54864;52.002;5.468;2023-05-20T04:51:19;102280.31;;;12.81;69.27
68075;BME280;54864;52.002;5.468;2023-05-20T04:52:21;102283.69;;;12.86;69.14
68075;BME280;54864;52.002;5.468;2023-05-20T04:53:21;102285.50;;;12.84;68.49
68075;BME280;54864;52.002;5.468;2023-05-20T04:54:23;102280.78;;;12.65;68.66
68075;BME280;54864;52.002;5.468;2023-05-20T04:55:27;102277.19;;;12.68;69.08
68075;BME280;54864;52.002;5.468;2023-05-20T04:56:30;102276.84;;;12.79;68.87
68075;BME280;54864;52.002;5.468;2023-05-20T04:57:33;102280.25;;;12.82;68.71
68075;BME280;54864;52.002;5.468;2023-05-20T04:58:35;102281.06;;;12.84;68.84
68075;BME280;54864;52.002;5.468;2023-05-20T04:59:36;102276.59;;;12.86;68.42
68075;BME280;54864;52.002;5.468;2023-05-20T05:00:39;102281.06;;;12.84;68.64
68075;BME280;54864;52.002;5.468;2023-05-20T05:01:40;102281.91;;;12.86;69.19
68075;BME280;54864;52.002;5.468;2023-05-20T05:02:41;102284.41;;;12.91;68.71
68075;BME280;54864;52.002;5.468;2023-05-20T05:03:42;102276.59;;;12.86;68.88
68075;BME280;54864;52.002;5.468;2023-05-20T05:04:44;102284.69;;;12.82;68.57
68075;BME280;54864;52.002;5.468;2023-05-20T05:05:44;102284.59;;;12.85;68.98
68075;BME280;54864;52.002;5.468;2023-05-20T05:06:48;102279.88;;;12.94;68.89
68075;BME280;54864;52.002;5.468;2023-05-20T05:07:52;102285.94;;;12.98;68.62
68075;BME280;54864;52.002;5.468;2023-05-20T05:08:53;102283.34;;;12.96;68.85
68075;BME280;54864;52.002;5.468;2023-05-20T05:09:54;102278.09;;;12.95;68.26
68075;BME280;54864;52.002;5.468;2023-05-20T05:10:56;102280.69;;;12.96;68.63
68075;BME280;54864;52.002;5.468;2023-05-20T05:11:56;102275.34;;;12.98;68.33
68075;BME280;54864;52.002;5.468;2023-05-20T05:12:58;102268.81;;;12.82;68.61
68075;BME280;54864;52.002;5.468;2023-05-20T05:13:59;102274.56;;;12.94;68.78
68075;BME280;54864;52.002;5.468;2023-05-20T05:15:01;102272.63;;;13.01;68.96
68075;BME280;54864;52.002;5.468;2023-05-20T05:16:03;102277.72;;;13.07;68.26
68075;BME280;54864;52.002;5.468;2023-05-20T05:17:05;102271.63;;;13.05;68.25
68075;BME280;54864;52.002;5.468;2023-05-20T05:18:06;102277.19;;;12.96;68.79
68075;BME280;54864;52.002;5.468;2023-05-20T05:19:07;102276.22;;;12.98;68.84
68075;BME280;54864;52.002;5.468;2023-05-20T05:20:09;102274.16;;;13.08;68.74
68075;BME280;54864;52.002;5.468;2023-05-20T05:21:13;102275.19;;;13.04;68.15
68075;BME280;54864;52.002;5.468;2023-05-20T05:22:17;102269.88;;;13.04;68.35
68075;BME280;54864;52.002;5.468;2023-05-20T05:23:18;102273.63;;;12.97;68.73
68075;BME280;54864;52.002;5.468;2023-05-20T05:24:19;102265.81;;;12.92;68.31
68075;BME280;54864;52.002;5.468;2023-05-20T05:25:20;102275.94;;;13.08;68.73